METAR AND TAF INFORMATION
METAR FOR TNCB
ADDS - METARS form results

(0500 UTC 13 November 2019)
Data provider http://aviationweather.gov/metar/data/
 
Forecast for: TNCB (BONAIRE/FLAMINGO, AN)
Text: TAF TNCB 122318Z 1300/1406 09013KT 9999 SCT018
Forecast period: 0000 UTC 13 November 2019 to 0600 UTC 14 November 2019
Forecast type: FROM: standard forecast or significant change
Winds: from the E (90 degrees) at 15 MPH (13 knots; 6.7 m/s)
Visibility: 6 or more miles 10+ km)
Ceiling: at least 12,000 feet AGL
Clouds: scattered clouds at 1800 feet AGL
Weather: no significant weather forecast for this period
Text: PROB30
Forecast period: 0600 to 1800 UTC 13 November 2019
Forecast type: TEMPORARY: The following changes expected for less than half the time period
Visibility: 4 miles (6 km)
Ceiling: at least 12,000 feet AGL
Clouds: scattered clouds at 1500 feet AGL
Weather: SHRA  (rain showers)

 AIRPORT MAP

 RUNWAY INFORMATION
Runway 10 Runway length 9449 ft Runway width 148 ft
Runway elevation 14 ft Runway displaced threshold 0 ft Runway heading 92
Runway 28 Runway length 9449 ft Runway width 148 ft
Runway elevation 20 ft Runway displaced threshold 0 ft Runway heading 272

 AIRPORT FREQUENCIES
Type TWR Name TWR Frequency 118.7 MHZ

 AIRPORT NEAR NAVIGATION AIDS
Type NDB Name Bonaire Frequency 321 KHZ